sensor_id;sensor_type;location;lat;lon;timestamp;pressure;altitude;pressure_sealevel;temperature;humidity
20696;BME280;10507;52.754;13.040;2023-12-20T00:01:03;101104.69;;;7.00;100.00
20696;BME280;10507;52.754;13.040;2023-12-20T00:03:30;101115.22;;;7.03;100.00
20696;BME280;10507;52.754;13.040;2023-12-20T00:05:57;101115.31;;;7.00;100.00
20696;BME280;10507;52.754;13.040;2023-12-20T00:08:23;101098.56;;;6.97;100.00
20696;BME280;10507;52.754;13.040;2023-12-20T00:10:50;101124.09;;;7.02;100.00
20696;BME280;10507;52.754;13.040;2023-12-20T00:13:17;101081.94;;;6.90;100.00
20696;BME280;10507;52.754;13.040;2023-12-20T00:15:46;101110.97;;;6.96;100.00
20696;BME280;10507;52.754;13.040;2023-12-20T00:18:15;101124.22;;;6.98;100.00
20696;BME280;10507;52.754;13.040;2023-12-20T00:20:41;101133.09;;;6.97;100.00
20696;BME280;10507;52.754;13.040;2023-12-20T00:23:08;101162.09;;;7.04;100.00
20696;BME280;10507;52.754;13.040;2023-12-20T00:25:37;101128.78;;;6.93;100.00
20696;BME280;10507;52.754;13.040;2023-12-20T00:28:04;101128.00;;;6.89;100.00
20696;BME280;10507;52.754;13.040;2023-12-20T00:30:33;101134.16;;;6.90;100.00
20696;BME280;10507;52.754;13.040;2023-12-20T00:33:00;101148.41;;;6.87;100.00
20696;BME280;10507;52.754;13.040;2023-12-20T00:35:29;101164.16;;;6.93;100.00
20696;BME280;10507;52.754;13.040;2023-12-20T00:37:57;101168.66;;;6.91;100.00
20696;BME280;10507;52.754;13.040;2023-12-20T00:40:25;101183.72;;;6.91;100.00
20696;BME280;10507;52.754;13.040;2023-12-20T00:42:55;101203.91;;;6.96;100.00
20696;BME280;10507;52.754;13.040;2023-12-20T00:45:23;101196.06;;;6.92;100.00
20696;BME280;10507;52.754;13.040;2023-12-20T00:47:50;101201.38;;;6.90;100.00
20696;BME280;10507;52.754;13.040;2023-12-20T00:50:17;101215.44;;;6.95;100.00
20696;BME280;10507;52.754;13.040;2023-12-20T00:52:48;101219.00;;;6.94;100.00
20696;BME280;10507;52.754;13.040;2023-12-20T00:55:15;101246.38;;;6.96;100.00
20696;BME280;10507;52.754;13.040;2023-12-20T00:57:43;101242.03;;;6.92;100.00
20696;BME280;10507;52.754;13.040;2023-12-20T01:00:13;101257.06;;;6.93;100.00
20696;BME280;10507;52.754;13.040;2023-12-20T01:02:40;101273.84;;;6.95;100.00
20696;BME280;10507;52.754;13.040;2023-12-20T01:05:07;101277.34;;;6.97;100.00
20696;BME280;10507;52.754;13.040;2023-12-20T01:07:34;101280.97;;;6.93;100.00
20696;BME280;10507;52.754;13.040;2023-12-20T01:10:03;101309.94;;;7.02;100.00
20696;BME280;10507;52.754;13.040;2023-12-20T01:12:30;101294.06;;;6.99;100.00
20696;BME280;10507;52.754;13.040;2023-12-20T01:14:56;101283.50;;;6.98;100.00
20696;BME280;10507;52.754;13.040;2023-12-20T01:17:24;101279.19;;;6.94;100.00
20696;BME280;10507;52.754;13.040;2023-12-20T01:19:50;101293.25;;;6.97;100.00
20696;BME280;10507;52.754;13.040;2023-12-20T01:22:17;101279.22;;;6.92;100.00
20696;BME280;10507;52.754;13.040;2023-12-20T01:24:44;101286.28;;;6.93;100.00
20696;BME280;10507;52.754;13.040;2023-12-20T01:27:12;101289.81;;;6.94;100.00
20696;BME280;10507;52.754;13.040;2023-12-20T01:29:42;101278.34;;;6.92;100.00
20696;BME280;10507;52.754;13.040;2023-12-20T01:32:09;101273.06;;;6.90;100.00
20696;BME280;10507;52.754;13.040;2023-12-20T01:34:38;101260.78;;;6.86;100.00
20696;BME280;10507;52.754;13.040;2023-12-20T01:37:06;101264.34;;;6.85;100.00
20696;BME280;10507;52.754;13.040;2023-12-20T01:39:36;101269.69;;;6.83;100.00
20696;BME280;10507;52.754;13.040;2023-12-20T01:42:09;101246.84;;;6.78;100.00
20696;BME280;10507;52.754;13.040;2023-12-20T01:44:38;101260.88;;;6.81;100.00
20696;BME280;10507;52.754;13.040;2023-12-20T01:47:05;101262.63;;;6.84;100.00
20696;BME280;10507;52.754;13.040;2023-12-20T01:49:33;101256.59;;;6.77;100.00
20696;BME280;10507;52.754;13.040;2023-12-20T01:52:01;101247.78;;;6.75;100.00
20696;BME280;10507;52.754;13.040;2023-12-20T01:54:28;101250.50;;;6.72;100.00
20696;BME280;10507;52.754;13.040;2023-12-20T01:56:55;101240.72;;;6.74;100.00
20696;BME280;10507;52.754;13.040;2023-12-20T01:59:22;101222.34;;;6.66;100.00
20696;BME280;10507;52.754;13.040;2023-12-20T02:01:51;101210.06;;;6.62;100.00
20696;BME280;10507;52.754;13.040;2023-12-20T02:04:19;101196.88;;;6.59;100.00
20696;BME280;10507;52.754;13.040;2023-12-20T02:06:52;101169.63;;;6.53;100.00
20696;BME280;10507;52.754;13.040;2023-12-20T02:09:19;101157.25;;;6.52;100.00
20696;BME280;10507;52.754;13.040;2023-12-20T02:11:46;101120.41;;;6.41;100.00
20696;BME280;10507;52.754;13.040;2023-12-20T02:14:13;101116.91;;;6.39;100.00
20696;BME280;10507;52.754;13.040;2023-12-20T02:16:42;101104.56;;;6.38;100.00
20696;BME280;10507;52.754;13.040;2023-12-20T02:19:16;101093.22;;;6.33;100.00
20696;BME280;10507;52.754;13.040;2023-12-20T02:21:49;101103.75;;;6.36;100.00
20696;BME280;10507;52.754;13.040;2023-12-20T02:24:19;101073.88;;;6.28;100.00
20696;BME280;10507;52.754;13.040;2023-12-20T02:26:46;101061.56;;;6.25;100.00
20696;BME280;10507;52.754;13.040;2023-12-20T02:29:13;101057.25;;;6.21;100.00
20696;BME280;10507;52.754;13.040;2023-12-20T02:31:40;101025.56;;;6.16;100.00
20696;BME280;10507;52.754;13.040;2023-12-20T02:34:08;101013.22;;;6.15;100.00
20696;BME280;10507;52.754;13.040;2023-12-20T02:36:37;100979.84;;;6.08;100.00
20696;BME280;10507;52.754;13.040;2023-12-20T02:39:06;100984.22;;;6.09;100.00
20696;BME280;10507;52.754;13.040;2023-12-20T02:41:33;100982.38;;;6.13;100.00
20696;BME280;10507;52.754;13.040;2023-12-20T02:44:06;100978.03;;;6.10;100.00
20696;BME280;10507;52.754;13.040;2023-12-20T02:46:34;100952.56;;;6.03;100.00
20696;BME280;10507;52.754;13.040;2023-12-20T02:49:01;100949.06;;;6.02;100.00
20696;BME280;10507;52.754;13.040;2023-12-20T02:51:27;100953.50;;;6.02;100.00
20696;BME280;10507;52.754;13.040;2023-12-20T02:53:54;100952.69;;;5.98;100.00
20696;BME280;10507;52.754;13.040;2023-12-20T02:56:22;100964.19;;;5.99;100.00
20696;BME280;10507;52.754;13.040;2023-12-20T02:58:49;100956.28;;;5.96;100.00
20696;BME280;10507;52.754;13.040;2023-12-20T03:01:19;100950.13;;;5.95;100.00
20696;BME280;10507;52.754;13.040;2023-12-20T03:03:46;100922.91;;;5.87;100.00
20696;BME280;10507;52.754;13.040;2023-12-20T03:06:21;100935.25;;;5.90;100.00
20696;BME280;10507;52.754;13.040;2023-12-20T03:08:48;100907.13;;;5.82;100.00
20696;BME280;10507;52.754;13.040;2023-12-20T03:11:19;100907.19;;;5.81;100.00
20696;BME280;10507;52.754;13.040;2023-12-20T03:13:56;100906.31;;;5.80;100.00
20696;BME280;10507;52.754;13.040;2023-12-20T03:16:23;100917.81;;;5.81;100.00
20696;BME280;10507;52.754;13.040;2023-12-20T03:18:52;100924.78;;;5.83;100.00
20696;BME280;10507;52.754;13.040;2023-12-20T03:21:27;100918.63;;;5.83;100.00
20696;BME280;10507;52.754;13.040;2023-12-20T03:23:54;100937.06;;;5.88;100.00
20696;BME280;10507;52.754;13.040;2023-12-20T03:26:22;100919.50;;;5.83;100.00
20696;BME280;10507;52.754;13.040;2023-12-20T03:28:51;100913.28;;;5.84;100.00
20696;BME280;10507;52.754;13.040;2023-12-20T03:31:23;100879.94;;;5.76;100.00
20696;BME280;10507;52.754;13.040;2023-12-20T03:33:53;100902.75;;;5.81;100.00
20696;BME280;10507;52.754;13.040;2023-12-20T03:36:20;100878.34;;;5.70;100.00
20696;BME280;10507;52.754;13.040;2023-12-20T03:38:46;100876.66;;;5.66;100.00
20696;BME280;10507;52.754;13.040;2023-12-20T03:41:14;100893.31;;;5.71;100.00
20696;BME280;10507;52.754;13.040;2023-12-20T03:43:41;100887.16;;;5.71;100.00
20696;BME280;10507;52.754;13.040;2023-12-20T03:46:08;100894.13;;;5.73;100.00
20696;BME280;10507;52.754;13.040;2023-12-20T03:48:36;100871.38;;;5.66;100.00
20696;BME280;10507;52.754;13.040;2023-12-20T03:51:02;100867.06;;;5.62;100.00
20696;BME280;10507;52.754;13.040;2023-12-20T03:53:29;100867.97;;;5.61;100.00
20696;BME280;10507;52.754;13.040;2023-12-20T03:55:55;100856.63;;;5.56;100.00
20696;BME280;10507;52.754;13.040;2023-12-20T03:58:22;100841.91;;;5.46;100.00
20696;BME280;10507;52.754;13.040;2023-12-20T04:00:51;100818.19;;;5.41;100.00
20696;BME280;10507;52.754;13.040;2023-12-20T04:03:21;100802.44;;;5.35;100.00
20696;BME280;10507;52.754;13.040;2023-12-20T04:05:49;100800.75;;;5.32;100.00
20696;BME280;10507;52.754;13.040;2023-12-20T04:08:16;100785.13;;;5.23;100.00
20696;BME280;10507;52.754;13.040;2023-12-20T04:10:43;100770.34;;;5.14;100.00
20696;BME280;10507;52.754;13.040;2023-12-20T04:13:10;100767.81;;;5.10;100.00
20696;BME280;10507;52.754;13.040;2023-12-20T04:15:38;100782.09;;;5.03;100.00
20696;BME280;10507;52.754;13.040;2023-12-20T04:18:07;100783.13;;;4.95;100.00
20696;BME280;10507;52.754;13.040;2023-12-20T04:20:39;100792.94;;;4.93;100.00
20696;BME280;10507;52.754;13.040;2023-12-20T04:23:07;100828.13;;;4.95;100.00
20696;BME280;10507;52.754;13.040;2023-12-20T04:25:37;100801.06;;;4.84;100.00
20696;BME280;10507;52.754;13.040;2023-12-20T04:28:06;100814.38;;;4.79;100.00
20696;BME280;10507;52.754;13.040;2023-12-20T04:30:33;100829.47;;;4.76;100.00
20696;BME280;10507;52.754;13.040;2023-12-20T04:33:10;100847.16;;;4.74;100.00
20696;BME280;10507;52.754;13.040;2023-12-20T04:35:40;100861.34;;;4.70;100.00
20696;BME280;10507;52.754;13.040;2023-12-20T04:38:12;100866.72;;;4.67;100.00
20696;BME280;10507;52.754;13.040;2023-12-20T04:40:39;100864.13;;;4.64;100.00
20696;BME280;10507;52.754;13.040;2023-12-20T04:43:06;100874.69;;;4.65;100.00
20696;BME280;10507;52.754;13.040;2023-12-20T04:45:33;100872.25;;;4.56;100.00
20696;BME280;10507;52.754;13.040;2023-12-20T04:48:00;100874.06;;;4.52;100.00
20696;BME280;10507;52.754;13.040;2023-12-20T04:50:27;100868.00;;;4.47;100.00
20696;BME280;10507;52.754;13.040;2023-12-20T04:52:54;100885.66;;;4.47;100.00
20696;BME280;10507;52.754;13.040;2023-12-20T04:55:22;100881.34;;;4.41;100.00
20696;BME280;10507;52.754;13.040;2023-12-20T04:57:49;100877.94;;;4.36;100.00
20696;BME280;10507;52.754;13.040;2023-12-20T05:00:16;100885.03;;;4.34;100.00
20696;BME280;10507;52.754;13.040;2023-12-20T05:02:43;100886.00;;;4.30;100.00
20696;BME280;10507;52.754;13.040;2023-12-20T05:05:10;100907.97;;;4.32;100.00
20696;BME280;10507;52.754;13.040;2023-12-20T05:07:37;100909.78;;;4.30;100.00
20696;BME280;10507;52.754;13.040;2023-12-20T05:10:04;100925.63;;;4.30;100.00
20696;BME280;10507;52.754;13.040;2023-12-20T05:12:34;100936.25;;;4.28;100.00
20696;BME280;10507;52.754;13.040;2023-12-20T05:15:01;100941.56;;;4.28;100.00
20696;BME280;10507;52.754;13.040;2023-12-20T05:17:28;100934.63;;;4.21;100.00
20696;BME280;10507;52.754;13.040;2023-12-20T05:19:55;100964.50;;;4.25;100.00
20696;BME280;10507;52.754;13.040;2023-12-20T05:22:22;100976.78;;;4.29;100.00
20696;BME280;10507;52.754;13.040;2023-12-20T05:24:52;101007.44;;;4.37;100.00
20696;BME280;10507;52.754;13.040;2023-12-20T05:27:19;101050.44;;;4.47;100.00
20696;BME280;10507;52.754;13.040;2023-12-20T05:29:50;101047.81;;;4.46;100.00
20696;BME280;10507;52.754;13.040;2023-12-20T05:32:16;101061.00;;;4.49;100.00
20696;BME280;10507;52.754;13.040;2023-12-20T05:34:43;101079.44;;;4.52;100.00
20696;BME280;10507;52.754;13.040;2023-12-20T05:37:12;101089.84;;;4.61;100.00
20696;BME280;10507;52.754;13.040;2023-12-20T05:39:42;101081.88;;;4.63;100.00
20696;BME280;10507;52.754;13.040;2023-12-20T05:42:09;101072.16;;;4.65;100.00
20696;BME280;10507;52.754;13.040;2023-12-20T05:44:35;101054.44;;;4.68;100.00
20696;BME280;10507;52.754;13.040;2023-12-20T05:47:04;101032.44;;;4.66;100.00
20696;BME280;10507;52.754;13.040;2023-12-20T05:49:30;100974.44;;;4.58;100.00
20696;BME280;10507;52.754;13.040;2023-12-20T05:51:57;100954.94;;;4.63;100.00
20696;BME280;10507;52.754;13.040;2023-12-20T05:54:24;100908.41;;;4.54;100.00
20696;BME280;10507;52.754;13.040;2023-12-20T05:56:51;100905.59;;;4.62;100.00
20696;BME280;10507;52.754;13.040;2023-12-20T05:59:18;100887.03;;;4.65;100.00
20696;BME280;10507;52.754;13.040;2023-12-20T06:01:45;100858.84;;;4.64;100.00
20696;BME280;10507;52.754;13.040;2023-12-20T06:04:13;100843.94;;;4.59;100.00
20696;BME280;10507;52.754;13.040;2023-12-20T06:06:43;100792.88;;;4.57;100.00
20696;BME280;10507;52.754;13.040;2023-12-20T06:09:10;100785.75;;;4.59;100.00
20696;BME280;10507;52.754;13.040;2023-12-20T06:11:37;100756.75;;;4.56;100.00
20696;BME280;10507;52.754;13.040;2023-12-20T06:14:03;100740.06;;;4.54;100.00
20696;BME280;10507;52.754;13.040;2023-12-20T06:16:32;100743.41;;;4.63;100.00
20696;BME280;10507;52.754;13.040;2023-12-20T06:19:01;100717.94;;;4.58;100.00
20696;BME280;10507;52.754;13.040;2023-12-20T06:21:29;100702.81;;;4.64;100.00
20696;BME280;10507;52.754;13.040;2023-12-20T06:24:02;100698.34;;;4.67;100.00
20696;BME280;10507;52.754;13.040;2023-12-20T06:26:31;100688.38;;;4.77;100.00
20696;BME280;10507;52.754;13.040;2023-12-20T06:28:58;100678.63;;;4.79;100.00
20696;BME280;10507;52.754;13.040;2023-12-20T06:31:24;100652.19;;;4.79;100.00
20696;BME280;10507;52.754;13.040;2023-12-20T06:33:51;100650.28;;;4.84;100.00
20696;BME280;10507;52.754;13.040;2023-12-20T06:36:22;100631.75;;;4.84;100.00
20696;BME280;10507;52.754;13.040;2023-12-20T06:38:53;100606.31;;;4.80;100.00
20696;BME280;10507;52.754;13.040;2023-12-20T06:41:22;100616.72;;;4.86;100.00
20696;BME280;10507;52.754;13.040;2023-12-20T06:43:49;100600.81;;;4.88;100.00
20696;BME280;10507;52.754;13.040;2023-12-20T06:46:16;100584.00;;;4.90;100.00
20696;BME280;10507;52.754;13.040;2023-12-20T06:48:43;100572.50;;;4.91;100.00
20696;BME280;10507;52.754;13.040;2023-12-20T06:51:12;100549.59;;;4.90;100.00
20696;BME280;10507;52.754;13.040;2023-12-20T06:53:41;100552.19;;;4.93;100.00
20696;BME280;10507;52.754;13.040;2023-12-20T06:56:12;100545.78;;;5.00;100.00
20696;BME280;10507;52.754;13.040;2023-12-20T06:58:39;100508.97;;;4.93;100.00
20696;BME280;10507;52.754;13.040;2023-12-20T07:01:11;100504.34;;;4.99;100.00
20696;BME280;10507;52.754;13.040;2023-12-20T07:03:38;100506.00;;;5.04;100.00
20696;BME280;10507;52.754;13.040;2023-12-20T07:06:05;100477.81;;;5.03;100.00
20696;BME280;10507;52.754;13.040;2023-12-20T07:08:31;100482.91;;;5.09;100.00
20696;BME280;10507;52.754;13.040;2023-12-20T07:10:58;100459.16;;;5.07;100.00
20696;BME280;10507;52.754;13.040;2023-12-20T07:13:26;100447.91;;;5.00;100.00
20696;BME280;10507;52.754;13.040;2023-12-20T07:15:53;100440.72;;;5.04;100.00
20696;BME280;10507;52.754;13.040;2023-12-20T07:18:20;100433.66;;;5.05;100.00
20696;BME280;10507;52.754;13.040;2023-12-20T07:20:47;100425.66;;;5.06;100.00
20696;BME280;10507;52.754;13.040;2023-12-20T07:23:17;100413.25;;;5.08;100.00
20696;BME280;10507;52.754;13.040;2023-12-20T07:25:45;100431.63;;;5.13;100.00
20696;BME280;10507;52.754;13.040;2023-12-20T07:28:12;100411.53;;;5.07;100.00
20696;BME280;10507;52.754;13.040;2023-12-20T07:30:43;100425.38;;;5.15;100.00
20696;BME280;10507;52.754;13.040;2023-12-20T07:33:10;100403.34;;;5.15;100.00
20696;BME280;10507;52.754;13.040;2023-12-20T07:35:39;100422.50;;;5.23;100.00
20696;BME280;10507;52.754;13.040;2023-12-20T07:38:13;100395.19;;;5.23;100.00
20696;BME280;10507;52.754;13.040;2023-12-20T07:40:40;100398.53;;;5.28;100.00
20696;BME280;10507;52.754;13.040;2023-12-20T07:43:07;100381.69;;;5.30;100.00
20696;BME280;10507;52.754;13.040;2023-12-20T07:45:34;100370.22;;;5.30;100.00
20696;BME280;10507;52.754;13.040;2023-12-20T07:48:04;100360.63;;;5.27;100.00
20696;BME280;10507;52.754;13.040;2023-12-20T07:50:30;100364.94;;;5.30;100.00
20696;BME280;10507;52.754;13.040;2023-12-20T07:52:58;100378.22;;;5.28;100.00
20696;BME280;10507;52.754;13.040;2023-12-20T07:55:26;100376.38;;;5.30;100.00
20696;BME280;10507;52.754;13.040;2023-12-20T07:57:53;100353.41;;;5.31;100.00
20696;BME280;10507;52.754;13.040;2023-12-20T08:00:19;100345.72;;;5.25;100.00
20696;BME280;10507;52.754;13.040;2023-12-20T08:02:46;100354.34;;;5.30;100.00
20696;BME280;10507;52.754;13.040;2023-12-20T08:05:14;100344.63;;;5.30;100.00
20696;BME280;10507;52.754;13.040;2023-12-20T08:07:41;100354.09;;;5.37;100.00
20696;BME280;10507;52.754;13.040;2023-12-20T08:10:08;100362.03;;;5.37;100.00
20696;BME280;10507;52.754;13.040;2023-12-20T08:12:35;100335.63;;;5.36;100.00
20696;BME280;10507;52.754;13.040;2023-12-20T08:15:01;100344.44;;;5.36;100.00
20696;BME280;10507;52.754;13.040;2023-12-20T08:17:29;100334.69;;;5.37;100.00
20696;BME280;10507;52.754;13.040;2023-12-20T08:19:56;100341.78;;;5.36;100.00
20696;BME280;10507;52.754;13.040;2023-12-20T08:22:24;100334.69;;;5.37;100.00
20696;BME280;10507;52.754;13.040;2023-12-20T08:24:51;100370.47;;;5.49;100.00
20696;BME280;10507;52.754;13.040;2023-12-20T08:27:18;100358.97;;;5.50;100.00
20696;BME280;10507;52.754;13.040;2023-12-20T08:29:44;100398.91;;;5.70;100.00
20696;BME280;10507;52.754;13.040;2023-12-20T08:32:11;100352.84;;;5.74;100.00
20696;BME280;10507;52.754;13.040;2023-12-20T08:34:38;100336.63;;;5.83;100.00
20696;BME280;10507;52.754;13.040;2023-12-20T08:37:05;100317.91;;;5.88;100.00
20696;BME280;10507;52.754;13.040;2023-12-20T08:39:33;100307.06;;;5.96;100.00
20696;BME280;10507;52.754;13.040;2023-12-20T08:42:00;100286.63;;;5.99;100.00
20696;BME280;10507;52.754;13.040;2023-12-20T08:44:30;100263.50;;;6.03;100.00
20696;BME280;10507;52.754;13.040;2023-12-20T08:46:56;100245.22;;;5.97;100.00
20696;BME280;10507;52.754;13.040;2023-12-20T08:49:23;100236.09;;;6.04;100.00
20696;BME280;10507;52.754;13.040;2023-12-20T08:51:50;100227.47;;;5.99;100.00
20696;BME280;10507;52.754;13.040;2023-12-20T08:54:17;100256.09;;;6.13;100.00
20696;BME280;10507;52.754;13.040;2023-12-20T08:56:46;100227.78;;;6.13;100.00
20696;BME280;10507;52.754;13.040;2023-12-20T08:59:12;100241.72;;;6.18;100.00
20696;BME280;10507;52.754;13.040;2023-12-20T09:01:39;100212.56;;;6.18;100.00
20696;BME280;10507;52.754;13.040;2023-12-20T09:04:06;100193.19;;;6.16;100.00
20696;BME280;10507;52.754;13.040;2023-12-20T09:06:33;100160.84;;;6.08;100.00
20696;BME280;10507;52.754;13.040;2023-12-20T09:08:58;100185.44;;;6.12;100.00
20696;BME280;10507;52.754;13.040;2023-12-20T09:11:25;100178.41;;;6.11;100.00
20696;BME280;10507;52.754;13.040;2023-12-20T09:13:53;100150.44;;;6.03;100.00
20696;BME280;10507;52.754;13.040;2023-12-20T09:16:19;100165.72;;;5.97;100.00
20696;BME280;10507;52.754;13.040;2023-12-20T09:18:46;100160.47;;;5.94;100.00
20696;BME280;10507;52.754;13.040;2023-12-20T09:21:13;100163.13;;;5.94;100.00
20696;BME280;10507;52.754;13.040;2023-12-20T09:23:39;100183.22;;;6.01;100.00
20696;BME280;10507;52.754;13.040;2023-12-20T09:26:07;100188.25;;;6.07;100.00
20696;BME280;10507;52.754;13.040;2023-12-20T09:28:34;100161.75;;;6.07;100.00
20696;BME280;10507;52.754;13.040;2023-12-20T09:31:05;100176.63;;;6.11;100.00
20696;BME280;10507;52.754;13.040;2023-12-20T09:33:32;100172.00;;;6.16;100.00
20696;BME280;10507;52.754;13.040;2023-12-20T09:35:58;100142.03;;;6.14;100.00
20696;BME280;10507;52.754;13.040;2023-12-20T09:38:25;100161.06;;;6.26;100.00
20696;BME280;10507;52.754;13.040;2023-12-20T09:40:52;100115.28;;;6.20;100.00
20696;BME280;10507;52.754;13.040;2023-12-20T09:43:20;100127.38;;;6.28;100.00
20696;BME280;10507;52.754;13.040;2023-12-20T09:45:53;100125.41;;;6.33;100.00
20696;BME280;10507;52.754;13.040;2023-12-20T09:48:23;100059.53;;;6.23;100.00
20696;BME280;10507;52.754;13.040;2023-12-20T09:50:52;100070.19;;;6.22;100.00
20696;BME280;10507;52.754;13.040;2023-12-20T09:53:19;100057.91;;;6.19;100.00
20696;BME280;10507;52.754;13.040;2023-12-20T09:55:48;100067.59;;;6.20;100.00
20696;BME280;10507;52.754;13.040;2023-12-20T09:58:15;100082.50;;;6.23;100.00
20696;BME280;10507;52.754;13.040;2023-12-20T10:00:42;100109.50;;;6.33;100.00
20696;BME280;10507;52.754;13.040;2023-12-20T10:03:09;100132.84;;;6.45;100.00
20696;BME280;10507;52.754;13.040;2023-12-20T10:05:43;100072.09;;;6.39;100.00
20696;BME280;10507;52.754;13.040;2023-12-20T10:08:09;100070.00;;;6.47;100.00
20696;BME280;10507;52.754;13.040;2023-12-20T10:10:37;100056.56;;;6.52;100.00
20696;BME280;10507;52.754;13.040;2023-12-20T10:13:05;99986.94;;;6.47;100.00
20696;BME280;10507;52.754;13.040;2023-12-20T10:15:34;99992.69;;;6.56;100.00
20696;BME280;10507;52.754;13.040;2023-12-20T10:18:02;99983.63;;;6.62;100.00
20696;BME280;10507;52.754;13.040;2023-12-20T10:20:29;99972.94;;;6.63;100.00
20696;BME280;10507;52.754;13.040;2023-12-20T10:22:58;99940.59;;;6.55;100.00
20696;BME280;10507;52.754;13.040;2023-12-20T10:25:25;99955.16;;;6.65;100.00
20696;BME280;10507;52.754;13.040;2023-12-20T10:28:10;99937.59;;;6.63;100.00
20696;BME280;10507;52.754;13.040;2023-12-20T10:30:38;99905.13;;;6.58;100.00
20696;BME280;10507;52.754;13.040;2023-12-20T10:33:05;99894.78;;;6.52;100.00
20696;BME280;10507;52.754;13.040;2023-12-20T10:35:33;99889.53;;;6.50;100.00
20696;BME280;10507;52.754;13.040;2023-12-20T10:38:04;99884.25;;;6.50;100.00
20696;BME280;10507;52.754;13.040;2023-12-20T10:40:31;99861.38;;;6.48;100.00
20696;BME280;10507;52.754;13.040;2023-12-20T10:43:02;99858.88;;;6.44;100.00
20696;BME280;10507;52.754;13.040;2023-12-20T10:45:29;99890.22;;;6.55;100.00
20696;BME280;10507;52.754;13.040;2023-12-20T10:47:57;99909.28;;;6.63;100.00
20696;BME280;10507;52.754;13.040;2023-12-20T10:50:26;99933.44;;;6.76;100.00
20696;BME280;10507;52.754;13.040;2023-12-20T10:52:54;99881.47;;;6.72;100.00
20696;BME280;10507;52.754;13.040;2023-12-20T10:55:23;99877.53;;;6.81;100.00
20696;BME280;10507;52.754;13.040;2023-12-20T10:57:51;99893.22;;;6.85;100.00
20696;BME280;10507;52.754;13.040;2023-12-20T11:00:18;99853.13;;;6.92;100.00
20696;BME280;10507;52.754;13.040;2023-12-20T11:02:45;99821.13;;;6.95;100.00
20696;BME280;10507;52.754;13.040;2023-12-20T11:05:24;99783.53;;;6.86;100.00
20696;BME280;10507;52.754;13.040;2023-12-20T11:07:59;99774.22;;;6.78;100.00
20696;BME280;10507;52.754;13.040;2023-12-20T11:10:31;99743.75;;;6.68;100.00
20696;BME280;10507;52.754;13.040;2023-12-20T11:13:07;99754.44;;;6.66;100.00
20696;BME280;10507;52.754;13.040;2023-12-20T11:15:36;99773.09;;;6.64;100.00
20696;BME280;10507;52.754;13.040;2023-12-20T11:18:04;99775.16;;;6.58;100.00
20696;BME280;10507;52.754;13.040;2023-12-20T11:20:36;99782.34;;;6.56;100.00
20696;BME280;10507;52.754;13.040;2023-12-20T11:23:08;99780.63;;;6.55;100.00
20696;BME280;10507;52.754;13.040;2023-12-20T11:25:47;99817.38;;;6.62;100.00
20696;BME280;10507;52.754;13.040;2023-12-20T11:28:14;99815.69;;;6.61;100.00
20696;BME280;10507;52.754;13.040;2023-12-20T11:30:47;99749.09;;;6.49;100.00
20696;BME280;10507;52.754;13.040;2023-12-20T11:33:14;99821.63;;;6.66;100.00
20696;BME280;10507;52.754;13.040;2023-12-20T11:35:42;99799.31;;;6.71;100.00
20696;BME280;10507;52.754;13.040;2023-12-20T11:38:09;99773.66;;;6.71;100.00
20696;BME280;10507;52.754;13.040;2023-12-20T11:40:36;99749.06;;;6.68;100.00
20696;BME280;10507;52.754;13.040;2023-12-20T11:43:04;99719.81;;;6.69;100.00
20696;BME280;10507;52.754;13.040;2023-12-20T11:45:32;99669.66;;;6.64;100.00
20696;BME280;10507;52.754;13.040;2023-12-20T11:48:01;99678.28;;;6.68;100.00
20696;BME280;10507;52.754;13.040;2023-12-20T11:50:31;99662.38;;;6.68;100.00
20696;BME280;10507;52.754;13.040;2023-12-20T11:52:58;99630.09;;;6.60;100.00
20696;BME280;10507;52.754;13.040;2023-12-20T11:55:24;99642.09;;;6.67;100.00
20696;BME280;10507;52.754;13.040;2023-12-20T11:57:54;99644.75;;;6.67;100.00
20696;BME280;10507;52.754;13.040;2023-12-20T12:00:22;99670.59;;;6.81;100.00
20696;BME280;10507;52.754;13.040;2023-12-20T12:02:56;99580.16;;;6.68;100.00
20696;BME280;10507;52.754;13.040;2023-12-20T12:05:25;99570.91;;;6.59;100.00
20696;BME280;10507;52.754;13.040;2023-12-20T12:07:53;99628.00;;;6.66;100.00
20696;BME280;10507;52.754;13.040;2023-12-20T12:10:19;99605.75;;;6.52;100.00
20696;BME280;10507;52.754;13.040;2023-12-20T12:12:47;99636.88;;;6.48;100.00
20696;BME280;10507;52.754;13.040;2023-12-20T12:15:14;99687.25;;;6.48;100.00
20696;BME280;10507;52.754;13.040;2023-12-20T12:17:42;99725.13;;;6.50;100.00
20696;BME280;10507;52.754;13.040;2023-12-20T12:20:10;99726.16;;;6.48;100.00
20696;BME280;10507;52.754;13.040;2023-12-20T12:22:37;99722.13;;;6.39;100.00
20696;BME280;10507;52.754;13.040;2023-12-20T12:25:12;99740.56;;;6.42;100.00
20696;BME280;10507;52.754;13.040;2023-12-20T12:27:42;99742.78;;;6.32;100.00
20696;BME280;10507;52.754;13.040;2023-12-20T12:30:10;99747.22;;;6.32;100.00
20696;BME280;10507;52.754;13.040;2023-12-20T12:32:38;99779.97;;;6.31;100.00
20696;BME280;10507;52.754;13.040;2023-12-20T12:35:07;99805.84;;;6.26;100.00
20696;BME280;10507;52.754;13.040;2023-12-20T12:37:37;99540.38;;;5.41;100.00
20696;BME280;10507;52.754;13.040;2023-12-20T12:40:06;99414.81;;;4.92;100.00
20696;BME280;10507;52.754;13.040;2023-12-20T12:42:33;99305.22;;;4.42;100.00
20696;BME280;10507;52.754;13.040;2023-12-20T12:44:59;99350.69;;;4.30;100.00
20696;BME280;10507;52.754;13.040;2023-12-20T12:47:26;99388.63;;;4.29;100.00